Time;durP1;ratioP1;P1;durP2;ratioP2;P2;SDS_P1;SDS_P2;PMS_P1;PMS_P2;Temp;Humidity;BMP_temperature;BMP_pressure;BME280_temperature;BME280_humidity;BME280_pressure;Samples;Min_cycle;Max_cycle;Signal;HPM_P1;HPM_P2
2021/01/16 00:00:28;;;;;;;12.27;8.13;;;0.20;99.90;;;;;;5007041;28;20504;-48
2021/01/16 00:02:55;;;;;;;9.30;7.30;;;0.20;99.90;;;;;;5012827;28;20504;-48
2021/01/16 00:05:27;;;;;;;9.53;7.03;;;0.20;99.90;;;;;;5012641;28;20467;-48
2021/01/16 00:08:02;;;;;;;8.27;6.80;;;0.20;99.90;;;;;;5009591;28;20555;-48
2021/01/16 00:10:31;;;;;;;8.60;7.00;;;0.10;99.90;;;;;;5013381;28;20467;-48
2021/01/16 00:13:00;;;;;;;10.00;7.10;;;0.00;99.90;;;;;;5012784;28;20571;-48
2021/01/16 00:15:28;;;;;;;8.93;6.60;;;0.10;99.90;;;;;;5013564;28;20540;-48
2021/01/16 00:18:05;;;;;;;10.73;6.87;;;0.00;99.90;;;;;;5016432;28;20511;-48
2021/01/16 00:20:34;;;;;;;8.07;6.50;;;-0.10;99.90;;;;;;5003456;28;20533;-48
2021/01/16 00:23:01;;;;;;;8.20;6.70;;;-0.20;99.90;;;;;;5017009;28;20479;-48
2021/01/16 00:25:29;;;;;;;8.53;6.87;;;-0.20;99.90;;;;;;5023267;28;20902;-48
2021/01/16 00:27:56;;;;;;;8.70;6.73;;;-0.20;99.90;;;;;;5024445;28;20474;-48
2021/01/16 00:30:28;;;;;;;8.67;7.53;;;0.10;99.90;;;;;;5024983;28;21010;-48
2021/01/16 00:32:56;;;;;;;8.43;7.10;;;0.00;99.90;;;;;;5026440;28;20860;-48
2021/01/16 00:35:24;;;;;;;7.60;6.17;;;-0.10;99.90;;;;;;5028971;28;20503;-48
2021/01/16 00:37:53;;;;;;;9.43;7.20;;;-0.20;99.90;;;;;;5028575;28;21025;-48
2021/01/16 00:40:22;;;;;;;9.13;6.90;;;0.20;99.90;;;;;;5028305;28;20659;-48
2021/01/16 00:42:53;;;;;;;8.10;6.57;;;0.00;99.90;;;;;;5028015;28;20507;-48
2021/01/16 00:45:22;;;;;;;9.30;6.97;;;-0.10;99.90;;;;;;5025311;28;20570;-48
2021/01/16 00:47:51;;;;;;;7.90;6.37;;;-0.20;99.90;;;;;;5028280;28;20483;-48
2021/01/16 00:50:20;;;;;;;8.47;6.60;;;-0.30;99.90;;;;;;5028582;28;21060;-48
2021/01/16 00:52:56;;;;;;;8.20;6.73;;;-0.20;99.90;;;;;;5040954;28;20475;-48
2021/01/16 00:55:27;;;;;;;9.07;7.07;;;-0.20;99.90;;;;;;5003988;28;20488;-48
2021/01/16 00:57:55;;;;;;;8.23;6.60;;;-0.30;99.90;;;;;;5021436;28;20553;-48
2021/01/16 01:00:28;;;;;;;10.63;7.50;;;-0.20;99.90;;;;;;4987501;28;20477;-48
2021/01/16 01:03:00;;;;;;;10.93;7.83;;;0.10;99.90;;;;;;5019836;28;21063;-48
2021/01/16 01:05:27;;;;;;;9.07;6.93;;;0.00;99.90;;;;;;5003364;28;20476;-48
2021/01/16 01:07:54;;;;;;;10.07;6.77;;;-0.10;99.90;;;;;;5010850;28;20563;-48
2021/01/16 01:10:27;;;;;;;8.50;6.77;;;-0.10;99.90;;;;;;5028086;28;20514;-48
2021/01/16 01:12:54;;;;;;;8.27;5.90;;;-0.20;99.90;;;;;;5027521;28;20502;-48
2021/01/16 01:15:22;;;;;;;10.10;7.40;;;-0.20;99.90;;;;;;5028091;28;20483;-48
2021/01/16 01:17:52;;;;;;;8.20;6.70;;;0.00;99.90;;;;;;5027596;28;20475;-48
2021/01/16 01:20:21;;;;;;;8.97;6.53;;;-0.10;99.90;;;;;;5027798;28;20562;-48
2021/01/16 01:22:49;;;;;;;8.90;6.67;;;-0.20;99.90;;;;;;5026961;28;20558;-48
2021/01/16 01:25:18;;;;;;;9.13;7.40;;;-0.10;99.90;;;;;;5043055;28;20471;-48
2021/01/16 01:27:54;;;;;;;8.73;6.30;;;-0.10;99.90;;;;;;5027637;28;21548;-48
2021/01/16 01:30:24;;;;;;;9.47;6.67;;;-0.20;99.90;;;;;;5026634;28;20649;-48
2021/01/16 01:32:52;;;;;;;7.27;6.27;;;-0.20;99.90;;;;;;5027147;28;20576;-48
2021/01/16 01:35:21;;;;;;;8.30;6.87;;;-0.30;99.90;;;;;;5027710;28;20515;-48
2021/01/16 01:37:50;;;;;;;8.47;6.70;;;-0.30;99.90;;;;;;5027551;28;20574;-48
2021/01/16 01:40:21;;;;;;;9.77;6.80;;;0.00;99.90;;;;;;5027526;28;20891;-48
2021/01/16 01:42:51;;;;;;;9.23;6.60;;;0.00;99.90;;;;;;5026425;28;20510;-48
2021/01/16 01:45:20;;;;;;;8.23;6.40;;;0.00;99.90;;;;;;5027608;28;21011;-48
2021/01/16 01:47:49;;;;;;;12.37;7.37;;;0.20;99.90;;;;;;5027231;28;20525;-48
2021/01/16 01:50:20;;;;;;;10.50;7.40;;;0.20;99.90;;;;;;5027241;28;21002;-48
2021/01/16 01:52:50;;;;;;;8.43;6.93;;;0.30;99.90;;;;;;5026871;28;20468;-48
2021/01/16 01:55:18;;;;;;;8.53;7.03;;;0.10;99.90;;;;;;5027180;28;20479;-48
2021/01/16 01:57:50;;;;;;;10.00;7.57;;;0.00;99.90;;;;;;5027186;28;20505;-48
2021/01/16 02:00:19;;;;;;;8.33;6.77;;;-0.10;99.90;;;;;;5027270;28;20483;-48
2021/01/16 02:02:48;;;;;;;9.43;6.73;;;-0.20;99.90;;;;;;5011476;28;20902;-48
2021/01/16 02:05:17;;;;;;;9.33;6.90;;;-0.10;99.90;;;;;;5014205;28;20913;-48
2021/01/16 02:07:47;;;;;;;9.63;7.33;;;-0.10;99.90;;;;;;5021871;28;20839;-48
2021/01/16 02:10:19;;;;;;;9.10;7.40;;;0.20;99.90;;;;;;5008445;28;20538;-48
2021/01/16 02:12:49;;;;;;;8.47;6.83;;;0.10;99.90;;;;;;5006840;28;20483;-48
2021/01/16 02:15:31;;;;;;;7.80;6.70;;;-0.10;99.90;;;;;;5007401;28;20480;-48
2021/01/16 02:18:07;;;;;;;10.87;7.13;;;0.00;99.90;;;;;;5007469;28;20492;-48
2021/01/16 02:20:37;;;;;;;9.13;7.43;;;0.10;99.90;;;;;;5023266;28;20474;-48
2021/01/16 02:23:34;;;;;;;9.37;7.20;;;0.40;99.90;;;;;;5019030;28;20840;-48
2021/01/16 02:26:28;;;;;;;10.93;7.50;;;0.20;99.90;;;;;;4990663;28;20538;-48
2021/01/16 02:28:59;;;;;;;9.10;7.40;;;0.30;99.90;;;;;;5001859;28;20460;-48
2021/01/16 02:31:31;;;;;;;10.63;7.30;;;0.20;99.90;;;;;;5007256;28;20551;-48
2021/01/16 02:34:01;;;;;;;10.77;7.93;;;0.20;99.90;;;;;;5006916;28;21000;-48
2021/01/16 02:36:47;;;;;;;9.13;7.13;;;0.50;99.90;;;;;;5007336;28;20564;-48
2021/01/16 02:39:20;;;;;;;9.20;7.30;;;0.90;99.90;;;;;;5006872;28;20483;-48
2021/01/16 02:41:54;;;;;;;10.23;7.33;;;0.50;99.90;;;;;;5015490;28;20559;-48
2021/01/16 02:44:35;;;;;;;9.53;7.00;;;0.20;99.90;;;;;;4991421;28;20481;-48
2021/01/16 02:47:10;;;;;;;9.07;6.80;;;0.30;99.90;;;;;;4991473;28;20563;-48
2021/01/16 02:49:45;;;;;;;8.63;6.73;;;0.10;99.90;;;;;;4991370;28;20480;-48
2021/01/16 02:52:18;;;;;;;9.53;7.07;;;0.00;99.90;;;;;;5011858;28;20504;-48
2021/01/16 02:54:47;;;;;;;10.73;7.97;;;0.20;99.90;;;;;;5013946;28;20480;-48
2021/01/16 02:57:16;;;;;;;9.53;7.17;;;0.00;99.90;;;;;;5013120;28;21011;-48
2021/01/16 02:59:46;;;;;;;9.63;7.20;;;0.30;99.90;;;;;;5007360;28;20472;-47
2021/01/16 03:02:15;;;;;;;11.10;8.30;;;0.40;99.90;;;;;;5013406;28;20848;-48
2021/01/16 03:04:44;;;;;;;9.80;7.37;;;0.20;99.90;;;;;;5026029;28;20870;-47
2021/01/16 03:07:13;;;;;;;10.30;7.20;;;0.10;99.90;;;;;;5025131;28;20506;-48
2021/01/16 03:09:41;;;;;;;9.80;7.13;;;0.20;99.90;;;;;;5011105;28;20972;-48
2021/01/16 03:12:11;;;;;;;9.13;7.33;;;0.20;99.90;;;;;;5010644;28;20515;-49
2021/01/16 03:14:44;;;;;;;8.57;6.57;;;0.10;99.90;;;;;;5010611;28;20574;-48
2021/01/16 03:17:14;;;;;;;8.87;6.50;;;0.00;99.90;;;;;;5010853;28;20483;-48
2021/01/16 03:19:45;;;;;;;9.17;6.70;;;-0.10;99.90;;;;;;5010950;28;20983;-47
2021/01/16 03:22:20;;;;;;;12.67;7.73;;;0.10;99.90;;;;;;5010359;28;21038;-48
2021/01/16 03:24:50;;;;;;;10.03;8.20;;;0.60;99.90;;;;;;5010344;28;20484;-48
2021/01/16 03:27:18;;;;;;;9.37;7.10;;;0.50;99.90;;;;;;5010785;28;20565;-48
2021/01/16 03:29:46;;;;;;;8.70;7.00;;;0.50;99.90;;;;;;5010709;28;20835;-48
2021/01/16 03:32:15;;;;;;;9.43;7.47;;;0.20;99.90;;;;;;5010242;28;20484;-48
2021/01/16 03:34:45;;;;;;;9.63;7.77;;;0.50;99.90;;;;;;5010545;28;20487;-48
2021/01/16 03:37:14;;;;;;;8.47;6.97;;;0.60;99.90;;;;;;5010523;28;20484;-47
2021/01/16 03:39:42;;;;;;;8.73;7.10;;;0.40;99.90;;;;;;5010342;28;20503;-48
2021/01/16 03:42:10;;;;;;;8.37;6.77;;;0.40;99.90;;;;;;5026888;28;20580;-48
2021/01/16 03:44:38;;;;;;;7.97;6.43;;;0.20;99.90;;;;;;5029838;28;20503;-48
2021/01/16 03:47:06;;;;;;;8.90;6.40;;;0.00;99.90;;;;;;5030097;28;20986;-48
2021/01/16 03:49:35;;;;;;;9.07;7.10;;;-0.10;99.90;;;;;;5029931;28;20475;-48
2021/01/16 03:52:03;;;;;;;8.00;6.57;;;0.00;99.90;;;;;;5029333;28;20967;-48
2021/01/16 03:54:31;;;;;;;8.93;6.77;;;0.00;99.90;;;;;;5028939;28;20479;-48
2021/01/16 03:56:58;;;;;;;9.43;7.37;;;-0.10;99.90;;;;;;5015317;28;21023;-48
2021/01/16 03:59:26;;;;;;;8.80;7.17;;;-0.20;99.90;;;;;;5009748;28;20482;-48
2021/01/16 04:01:53;;;;;;;10.10;6.87;;;-0.20;99.90;;;;;;5017478;28;20895;-48
2021/01/16 04:04:21;;;;;;;9.03;6.87;;;-0.10;99.90;;;;;;5028971;28;20913;-48
2021/01/16 04:06:49;;;;;;;8.87;7.20;;;-0.10;99.90;;;;;;5029359;28;21026;-48
2021/01/16 04:09:16;;;;;;;9.23;7.27;;;-0.10;99.90;;;;;;5029728;28;20483;-48
2021/01/16 04:11:43;;;;;;;10.63;7.27;;;0.10;99.90;;;;;;5028900;28;20540;-48
2021/01/16 04:14:11;;;;;;;9.63;7.30;;;0.00;99.90;;;;;;5029292;28;20495;-48
2021/01/16 04:16:39;;;;;;;9.83;6.67;;;0.00;99.90;;;;;;5029421;28;21056;-48
2021/01/16 04:19:07;;;;;;;8.33;6.90;;;0.00;99.90;;;;;;5028720;28;20831;-48
2021/01/16 04:21:34;;;;;;;9.10;7.47;;;-0.10;99.90;;;;;;5018682;28;20469;-48
2021/01/16 04:24:04;;;;;;;8.20;6.80;;;-0.20;99.90;;;;;;5009581;28;20480;-48
2021/01/16 04:26:32;;;;;;;8.93;6.70;;;-0.20;99.90;;;;;;5016423;28;20482;-48
2021/01/16 04:29:00;;;;;;;9.03;7.07;;;0.10;99.90;;;;;;5026888;28;20475;-48
2021/01/16 04:31:27;;;;;;;9.07;7.03;;;-0.10;99.90;;;;;;5043902;28;20574;-47
2021/01/16 04:33:55;;;;;;;11.83;7.83;;;0.40;99.90;;;;;;5029062;28;20558;-48
2021/01/16 04:36:22;;;;;;;10.87;7.80;;;0.30;99.90;;;;;;5029318;28;20483;-47
2021/01/16 04:38:50;;;;;;;11.50;7.87;;;0.50;99.90;;;;;;5029101;28;20483;-48
2021/01/16 04:41:20;;;;;;;11.40;7.93;;;0.40;99.90;;;;;;5029237;28;20475;-48
2021/01/16 04:43:48;;;;;;;7.97;6.93;;;0.20;99.90;;;;;;5022516;28;20837;-47
2021/01/16 04:46:16;;;;;;;9.27;6.87;;;0.30;99.90;;;;;;5008999;28;21046;-48
2021/01/16 04:48:48;;;;;;;9.73;7.30;;;0.20;99.90;;;;;;5017954;28;20479;-47
2021/01/16 04:51:17;;;;;;;10.43;7.27;;;0.20;99.90;;;;;;5011743;28;20537;-48
2021/01/16 04:53:47;;;;;;;9.37;7.17;;;-0.10;99.90;;;;;;5007428;28;20523;-48
2021/01/16 04:56:17;;;;;;;8.43;6.23;;;-0.10;99.90;;;;;;5015018;28;20542;-48
2021/01/16 04:58:44;;;;;;;10.27;7.47;;;0.00;99.90;;;;;;5016660;28;20568;-47
2021/01/16 05:01:11;;;;;;;10.07;7.47;;;-0.10;99.90;;;;;;5028424;28;20511;-48
2021/01/16 05:03:41;;;;;;;10.27;7.43;;;0.00;99.90;;;;;;5012343;28;20841;-47
2021/01/16 05:06:12;;;;;;;10.17;7.63;;;0.00;99.90;;;;;;5008789;28;20560;-49
2021/01/16 05:08:42;;;;;;;10.50;7.07;;;-0.20;99.90;;;;;;5008506;28;20470;-48
2021/01/16 05:11:22;;;;;;;10.17;7.57;;;0.10;99.90;;;;;;5008237;28;20543;-48
2021/01/16 05:13:56;;;;;;;10.20;7.30;;;-0.10;99.90;;;;;;5007861;28;20562;-47
2021/01/16 05:16:29;;;;;;;10.97;8.10;;;0.10;99.90;;;;;;4988859;28;20902;-48
2021/01/16 05:18:57;;;;;;;12.70;8.43;;;0.10;99.90;;;;;;4988864;28;20469;-47
2021/01/16 05:21:24;;;;;;;11.50;8.63;;;0.40;99.90;;;;;;4988204;28;20481;-48
2021/01/16 05:23:53;;;;;;;12.17;8.53;;;0.10;99.90;;;;;;4988490;28;20612;-48
2021/01/16 05:26:22;;;;;;;9.23;7.33;;;0.20;99.90;;;;;;4988669;28;20485;-49
2021/01/16 05:28:50;;;;;;;11.07;8.43;;;0.10;99.90;;;;;;4988656;28;21141;-47
2021/01/16 05:31:17;;;;;;;10.73;8.20;;;0.20;99.90;;;;;;4988818;28;20876;-48
2021/01/16 05:33:44;;;;;;;11.70;8.87;;;0.20;99.90;;;;;;4988142;28;20487;-48
2021/01/16 05:36:12;;;;;;;12.40;8.97;;;0.50;99.90;;;;;;4988137;28;20568;-48
2021/01/16 05:38:42;;;;;;;10.17;7.93;;;0.50;99.90;;;;;;4988666;28;20964;-48
2021/01/16 05:41:12;;;;;;;10.00;8.10;;;0.60;99.90;;;;;;4988701;28;20543;-48
2021/01/16 05:43:42;;;;;;;10.53;8.73;;;0.60;99.90;;;;;;4987778;28;20477;-48
2021/01/16 05:46:15;;;;;;;10.83;7.87;;;0.40;99.90;;;;;;4988582;28;20845;-48
2021/01/16 05:48:43;;;;;;;9.40;7.63;;;0.00;99.90;;;;;;4987699;28;20480;-47
2021/01/16 05:51:15;;;;;;;10.67;7.77;;;-0.20;99.90;;;;;;5000843;28;21072;-48
2021/01/16 05:53:43;;;;;;;9.83;6.87;;;-0.20;99.90;;;;;;5010959;28;20484;-48
2021/01/16 05:56:12;;;;;;;10.30;7.67;;;-0.30;99.90;;;;;;5005210;28;20852;-48
2021/01/16 05:58:44;;;;;;;10.80;8.13;;;-0.50;99.90;;;;;;5014020;28;20990;-47
2021/01/16 06:01:22;;;;;;;10.23;7.77;;;-0.50;99.90;;;;;;5012419;28;20544;-48
2021/01/16 06:03:52;;;;;;;10.50;7.83;;;-0.60;99.90;;;;;;5007783;28;20526;-48
2021/01/16 06:06:20;;;;;;;10.90;8.07;;;-0.40;99.90;;;;;;5008193;28;20503;-48
2021/01/16 06:08:53;;;;;;;10.37;7.63;;;-0.40;99.90;;;;;;5007691;28;20555;-48
2021/01/16 06:11:23;;;;;;;9.07;7.30;;;-0.50;99.90;;;;;;5007697;28;20476;-48
2021/01/16 06:13:56;;;;;;;9.00;7.10;;;-0.60;99.90;;;;;;5010168;28;20546;-47
2021/01/16 06:16:23;;;;;;;11.83;8.20;;;-0.30;99.90;;;;;;5010889;28;20555;-48
2021/01/16 06:18:56;;;;;;;12.90;8.77;;;-0.30;99.90;;;;;;5014430;28;21050;-47
2021/01/16 06:21:25;;;;;;;12.87;8.80;;;0.10;99.90;;;;;;5014183;28;20515;-47
2021/01/16 06:23:54;;;;;;;13.23;9.33;;;0.30;99.90;;;;;;5013964;28;20504;-48
2021/01/16 06:26:22;;;;;;;13.53;9.83;;;0.40;99.90;;;;;;5014036;28;20488;-48
2021/01/16 06:28:56;;;;;;;12.40;9.37;;;0.30;99.90;;;;;;5014384;28;20966;-48
2021/01/16 06:31:28;;;;;;;11.83;8.23;;;0.00;99.90;;;;;;5014114;28;20499;-48
2021/01/16 06:33:58;;;;;;;12.30;9.40;;;0.10;99.90;;;;;;5014222;28;20979;-48
2021/01/16 06:36:28;;;;;;;10.93;7.83;;;0.00;99.90;;;;;;5022641;28;20486;-48
2021/01/16 06:38:58;;;;;;;13.17;9.37;;;0.10;99.90;;;;;;5030948;28;20582;-48
2021/01/16 06:41:31;;;;;;;11.43;8.00;;;0.00;99.90;;;;;;5032143;28;20868;-49
2021/01/16 06:44:01;;;;;;;13.33;9.50;;;0.00;99.90;;;;;;5032072;28;20808;-48
2021/01/16 06:46:44;;;;;;;14.17;9.10;;;0.00;99.90;;;;;;5029853;28;21002;-48
2021/01/16 06:49:23;;;;;;;12.27;8.70;;;0.20;99.90;;;;;;5013818;28;20882;-48
2021/01/16 06:51:51;;;;;;;14.30;9.20;;;-0.20;99.90;;;;;;5008508;28;20481;-48
2021/01/16 06:54:23;;;;;;;12.47;9.47;;;-0.20;99.90;;;;;;5017144;28;20494;-48
2021/01/16 06:57:03;;;;;;;11.57;8.87;;;-0.20;99.90;;;;;;5025969;28;20507;-48
2021/01/16 06:59:34;;;;;;;11.80;8.70;;;-0.30;99.90;;;;;;4994007;28;20527;-48
2021/01/16 07:02:22;;;;;;;12.00;8.27;;;-0.20;99.90;;;;;;4994290;28;20489;-48
2021/01/16 07:04:54;;;;;;;10.70;8.03;;;-0.30;99.90;;;;;;5024605;28;20486;-48
2021/01/16 07:07:29;;;;;;;11.63;8.70;;;-0.40;99.90;;;;;;5032794;28;20482;-48
2021/01/16 07:09:58;;;;;;;11.33;8.63;;;-0.50;99.90;;;;;;5025078;28;21461;-48
2021/01/16 07:12:26;;;;;;;10.60;8.30;;;-0.60;99.90;;;;;;5012043;28;20465;-48
2021/01/16 07:14:54;;;;;;;11.57;8.00;;;-0.60;99.90;;;;;;5012366;28;20836;-48
2021/01/16 07:17:26;;;;;;;12.70;8.43;;;-0.60;99.90;;;;;;5012345;28;20518;-48
2021/01/16 07:19:56;;;;;;;11.03;7.97;;;-0.60;99.90;;;;;;5012278;28;20475;-48
2021/01/16 07:22:31;;;;;;;9.93;7.73;;;-0.70;99.90;;;;;;5026171;28;20488;-48
2021/01/16 07:25:01;;;;;;;11.43;8.30;;;-0.60;99.90;;;;;;5012554;28;20644;-48
2021/01/16 07:27:29;;;;;;;11.23;8.03;;;-0.60;99.90;;;;;;5010435;28;21013;-48
2021/01/16 07:29:58;;;;;;;10.53;7.53;;;-0.60;99.90;;;;;;5009025;28;20500;-48
2021/01/16 07:32:39;;;;;;;13.03;8.97;;;-0.60;99.90;;;;;;5008409;28;20559;-48
2021/01/16 07:35:10;;;;;;;12.17;8.57;;;-0.50;99.90;;;;;;4989187;28;20492;-48
2021/01/16 07:37:39;;;;;;;11.10;8.27;;;-0.60;99.90;;;;;;4989233;28;20885;-48
2021/01/16 07:40:24;;;;;;;13.47;8.00;;;-0.60;99.90;;;;;;4989429;28;20567;-48
2021/01/16 07:42:53;;;;;;;13.23;8.50;;;-0.60;99.90;;;;;;4989023;28;20485;-48
2021/01/16 07:45:26;;;;;;;12.23;8.60;;;-0.60;99.90;;;;;;4988875;28;20520;-48
2021/01/16 07:47:56;;;;;;;11.93;8.50;;;-0.70;99.90;;;;;;5003673;28;20480;-48
2021/01/16 07:50:26;;;;;;;12.03;8.80;;;-0.70;99.90;;;;;;5012377;28;20482;-48
2021/01/16 07:52:55;;;;;;;10.87;7.57;;;-0.70;99.90;;;;;;5024504;28;21013;-48
2021/01/16 07:55:45;;;;;;;11.13;7.53;;;-0.60;99.90;;;;;;5021614;28;20603;-49
2021/01/16 07:58:30;;;;;;;11.63;8.20;;;-0.70;99.90;;;;;;5008524;28;20484;-48
2021/01/16 08:01:02;;;;;;;11.97;8.17;;;-0.70;99.90;;;;;;5004661;28;20475;-49
2021/01/16 08:03:52;;;;;;;10.73;8.17;;;-0.60;99.90;;;;;;5011016;28;20547;-48
2021/01/16 08:06:27;;;;;;;12.13;8.67;;;-0.60;99.90;;;;;;5013363;28;20580;-48
2021/01/16 08:09:03;;;;;;;12.93;8.83;;;-0.60;99.90;;;;;;5015550;28;20478;-48
2021/01/16 08:11:32;;;;;;;11.37;8.60;;;-0.60;99.90;;;;;;5005614;28;20555;-49
2021/01/16 08:14:02;;;;;;;11.10;7.90;;;-0.60;99.90;;;;;;5007882;28;20820;-48
2021/01/16 08:16:30;;;;;;;10.20;7.93;;;-0.60;99.90;;;;;;5006669;28;20476;-48
2021/01/16 08:19:24;;;;;;;10.37;7.80;;;-0.60;99.90;;;;;;5005000;28;21051;-48
2021/01/16 08:21:55;;;;;;;10.43;7.90;;;-0.60;99.90;;;;;;5007568;28;20520;-48
2021/01/16 08:24:26;;;;;;;10.73;8.17;;;-0.60;99.90;;;;;;4991895;28;20481;-48
2021/01/16 08:26:59;;;;;;;11.20;7.70;;;-0.50;99.90;;;;;;4990483;28;20529;-48
2021/01/16 08:29:28;;;;;;;10.97;7.90;;;-0.50;99.90;;;;;;4997807;28;20477;-49
2021/01/16 08:32:09;;;;;;;12.23;7.57;;;-0.50;99.90;;;;;;4988369;28;20495;-48
2021/01/16 08:34:56;;;;;;;9.50;7.23;;;-0.50;99.90;;;;;;5006684;28;20495;-48
2021/01/16 08:37:33;;;;;;;10.10;7.50;;;-0.50;99.90;;;;;;4994990;28;20804;-48
2021/01/16 08:40:04;;;;;;;10.17;7.53;;;-0.50;99.90;;;;;;4989986;28;20836;-47
2021/01/16 08:42:31;;;;;;;10.33;7.83;;;-0.50;99.90;;;;;;4998836;28;20484;-48
2021/01/16 08:45:00;;;;;;;9.50;7.50;;;-0.50;99.90;;;;;;5004737;28;20484;-48
2021/01/16 08:47:29;;;;;;;8.43;6.70;;;-0.50;99.90;;;;;;5002207;28;20499;-48
2021/01/16 08:50:13;;;;;;;10.37;7.50;;;-0.50;99.90;;;;;;5006462;28;20902;-48
2021/01/16 08:52:40;;;;;;;11.07;7.87;;;-0.30;99.90;;;;;;5015949;28;20562;-48
2021/01/16 08:55:08;;;;;;;9.73;7.57;;;-0.30;99.90;;;;;;5013309;28;20561;-48
2021/01/16 08:57:37;;;;;;;11.00;7.67;;;-0.30;99.90;;;;;;5009792;28;20555;-49
2021/01/16 09:00:23;;;;;;;8.17;6.57;;;-0.30;99.90;;;;;;5007433;28;20480;-48
2021/01/16 09:03:13;;;;;;;8.67;6.67;;;-0.30;99.90;;;;;;5006955;28;20987;-47
2021/01/16 09:05:43;;;;;;;8.70;6.87;;;-0.20;99.90;;;;;;5006176;28;20516;-48
2021/01/16 09:08:22;;;;;;;8.60;6.70;;;-0.20;99.90;;;;;;4987699;28;20488;-48
2021/01/16 09:10:50;;;;;;;9.83;7.20;;;-0.10;99.90;;;;;;4987390;28;20513;-48
2021/01/16 09:13:26;;;;;;;9.07;6.33;;;-0.10;99.90;;;;;;4991689;28;20480;-48
2021/01/16 09:15:56;;;;;;;9.07;6.90;;;-0.10;99.90;;;;;;5004355;28;20481;-48
2021/01/16 09:18:28;;;;;;;9.67;6.40;;;-0.10;99.90;;;;;;5006768;28;20554;-48
2021/01/16 09:21:00;;;;;;;8.83;6.57;;;-0.10;99.90;;;;;;5005553;28;20476;-48
2021/01/16 09:23:31;;;;;;;7.43;5.90;;;0.00;99.90;;;;;;5005783;28;20476;-48
2021/01/16 09:26:09;;;;;;;8.80;6.37;;;0.00;99.90;;;;;;5007269;28;20496;-48
2021/01/16 09:28:47;;;;;;;8.03;6.60;;;0.00;99.90;;;;;;5006244;28;20495;-48
2021/01/16 09:31:20;;;;;;;7.53;6.10;;;0.10;99.90;;;;;;5007029;28;20484;-48
2021/01/16 09:34:10;;;;;;;7.52;5.80;;;0.10;99.90;;;;;;4106006;28;10001986;-48
2021/01/16 09:36:44;;;;;;;7.35;5.97;;;0.20;99.90;;;;;;2061798;28;10001996;-48
2021/01/16 09:39:23;;;;;;;9.07;6.20;;;0.20;99.90;;;;;;4999602;28;20540;-48
2021/01/16 09:41:54;;;;;;;9.13;5.87;;;0.20;99.90;;;;;;5007021;28;20876;-48
2021/01/16 09:44:51;;;;;;;8.47;6.43;;;0.20;99.90;;;;;;5009108;28;20488;-48
2021/01/16 09:47:45;;;;;;;7.70;6.30;;;0.30;99.90;;;;;;5024085;28;20479;-47
2021/01/16 09:50:17;;;;;;;9.77;6.70;;;0.40;99.90;;;;;;5026615;28;20487;-48
2021/01/16 09:52:50;;;;;;;8.87;6.60;;;0.60;99.90;;;;;;4987619;28;21009;-49
2021/01/16 09:55:31;;;;;;;7.63;6.10;;;0.70;99.90;;;;;;4987954;28;20488;-48
2021/01/16 09:58:01;;;;;;;7.70;6.27;;;0.80;99.90;;;;;;4988280;28;20484;-48
2021/01/16 10:00:33;;;;;;;7.20;5.57;;;0.80;99.90;;;;;;4988265;28;21000;-48
2021/01/16 10:03:08;;;;;;;6.33;5.30;;;0.80;99.90;;;;;;4993612;28;20515;-48
2021/01/16 10:05:39;;;;;;;7.27;5.60;;;0.90;99.90;;;;;;5003031;28;20492;-48
2021/01/16 10:08:09;;;;;;;7.27;5.60;;;0.80;99.90;;;;;;5011579;28;20528;-48
2021/01/16 10:10:45;;;;;;;7.23;5.50;;;0.70;99.90;;;;;;4994834;28;20488;-48
2021/01/16 10:13:21;;;;;;;7.77;5.53;;;0.80;99.90;;;;;;4996040;28;20492;-48
2021/01/16 10:15:53;;;;;;;7.70;6.23;;;0.90;99.90;;;;;;4992991;28;20484;-48
2021/01/16 10:18:21;;;;;;;7.37;5.40;;;1.10;99.90;;;;;;4995858;28;20492;-48
2021/01/16 10:21:06;;;;;;;6.57;5.40;;;1.20;99.90;;;;;;4995994;28;21152;-48
2021/01/16 10:23:36;;;;;;;7.37;5.70;;;1.20;99.90;;;;;;4995456;28;20576;-48
2021/01/16 10:26:08;;;;;;;6.83;5.30;;;1.20;99.90;;;;;;4993634;28;20503;-49
2021/01/16 10:28:39;;;;;;;7.10;5.43;;;1.20;99.90;;;;;;4996007;28;20472;-48
2021/01/16 10:31:09;;;;;;;7.20;5.80;;;1.20;99.90;;;;;;4995781;28;20483;-48
2021/01/16 10:33:42;;;;;;;5.57;4.97;;;1.20;99.90;;;;;;4995458;28;20491;-48
2021/01/16 10:36:14;;;;;;;6.93;5.80;;;1.30;99.90;;;;;;4989795;28;20484;-48
2021/01/16 10:38:50;;;;;;;6.43;5.20;;;1.30;99.90;;;;;;4993559;28;21006;-48
2021/01/16 10:41:34;;;;;;;7.20;5.73;;;1.40;99.90;;;;;;4993344;28;21094;-49
2021/01/16 10:44:05;;;;;;;7.53;6.00;;;1.50;99.90;;;;;;4996484;28;20496;-48
2021/01/16 10:46:40;;;;;;;8.00;5.43;;;1.70;99.90;;;;;;4992923;28;20484;-49
2021/01/16 10:49:14;;;;;;;6.83;5.40;;;1.80;99.90;;;;;;4993194;28;20492;-49
2021/01/16 10:51:50;;;;;;;8.90;5.87;;;1.90;99.90;;;;;;4993369;28;20493;-48
2021/01/16 10:54:19;;;;;;;7.40;5.63;;;2.20;99.90;;;;;;4993433;28;20528;-49
2021/01/16 10:57:02;;;;;;;12.83;7.80;;;2.20;99.90;;;;;;4989080;28;20584;-49
2021/01/16 10:59:31;;;;;;;10.00;7.33;;;2.20;99.90;;;;;;4991619;28;20579;-48
2021/01/16 11:02:09;;;;;;;9.53;7.20;;;2.30;99.90;;;;;;4992887;28;20544;-50
2021/01/16 11:04:44;;;;;;;8.93;7.20;;;2.50;99.90;;;;;;4992893;28;20687;-49
2021/01/16 11:07:27;;;;;;;8.47;6.30;;;2.60;99.90;;;;;;4991740;28;20530;-49
2021/01/16 11:10:06;;;;;;;7.23;5.80;;;2.70;99.90;;;;;;4995870;28;21050;-48
2021/01/16 11:12:34;;;;;;;7.57;5.80;;;2.60;99.90;;;;;;4995961;28;20884;-48
2021/01/16 11:15:03;;;;;;;7.30;5.63;;;2.60;99.90;;;;;;4995846;28;21053;-48
2021/01/16 11:17:48;;;;;;;6.50;5.50;;;2.80;99.90;;;;;;4993281;28;20486;-48
2021/01/16 11:20:28;;;;;;;6.83;5.43;;;2.80;99.90;;;;;;4995407;28;21077;-48
2021/01/16 11:23:53;;;;;;;8.73;5.67;;;2.70;99.90;;;;;;4995057;28;21054;-48
2021/01/16 11:26:23;;;;;;;6.93;5.67;;;2.60;99.90;;;;;;4976371;28;20913;-48
2021/01/16 11:28:53;;;;;;;7.20;6.00;;;2.30;99.90;;;;;;5002159;28;20547;-48
2021/01/16 11:31:32;;;;;;;5.87;5.03;;;2.20;99.90;;;;;;4988752;28;21259;-49
2021/01/16 11:34:21;;;;;;;8.17;6.07;;;2.10;99.90;;;;;;4987536;28;20484;-48
2021/01/16 11:37:01;;;;;;;6.93;5.73;;;2.10;99.90;;;;;;5005168;28;20496;-49
2021/01/16 11:39:45;;;;;;;7.97;6.20;;;2.00;99.90;;;;;;5008137;28;20495;-48
2021/01/16 11:42:15;;;;;;;7.83;5.77;;;2.00;99.90;;;;;;5008603;28;20480;-48
2021/01/16 11:44:51;;;;;;;8.73;6.13;;;2.10;99.90;;;;;;5022734;28;20478;-48
2021/01/16 11:47:18;;;;;;;7.60;5.83;;;2.10;99.90;;;;;;5010198;28;20488;-48
2021/01/16 11:49:46;;;;;;;6.80;5.70;;;2.10;99.90;;;;;;5009887;28;20995;-48
2021/01/16 11:52:19;;;;;;;7.50;5.63;;;2.00;99.90;;;;;;4999937;28;20482;-49
2021/01/16 11:54:48;;;;;;;9.77;6.00;;;1.90;99.90;;;;;;4990253;28;20558;-48
2021/01/16 11:57:22;;;;;;;7.93;5.87;;;1.90;99.90;;;;;;4990281;28;20477;-48
2021/01/16 11:59:50;;;;;;;7.47;5.83;;;1.90;99.90;;;;;;4990011;28;20515;-48
2021/01/16 12:02:20;;;;;;;7.93;5.73;;;2.00;99.90;;;;;;4999481;28;20558;-48
2021/01/16 12:04:48;;;;;;;7.70;6.07;;;1.90;99.90;;;;;;5009720;28;20558;-48
2021/01/16 12:07:18;;;;;;;7.67;6.03;;;1.90;99.90;;;;;;5009927;28;20547;-48
2021/01/16 12:09:47;;;;;;;7.33;6.20;;;2.00;99.90;;;;;;5009070;28;20492;-48
2021/01/16 12:12:33;;;;;;;7.77;5.97;;;2.00;99.90;;;;;;4997902;28;20919;-48
2021/01/16 12:15:02;;;;;;;8.63;6.23;;;2.10;99.90;;;;;;4989419;28;20470;-48
2021/01/16 12:17:31;;;;;;;8.23;6.23;;;2.00;99.90;;;;;;4989937;28;21116;-48
2021/01/16 12:19:59;;;;;;;7.37;6.20;;;1.90;99.90;;;;;;4993944;28;20899;-48
2021/01/16 12:22:30;;;;;;;9.43;7.03;;;1.90;99.90;;;;;;5008518;28;20508;-48
2021/01/16 12:24:58;;;;;;;7.03;6.10;;;1.80;99.90;;;;;;5009640;28;21033;-48
2021/01/16 12:27:26;;;;;;;7.77;5.93;;;1.80;99.90;;;;;;5009451;28;20480;-48
2021/01/16 12:29:56;;;;;;;8.53;6.80;;;1.70;99.90;;;;;;5005750;28;20574;-48
2021/01/16 12:32:23;;;;;;;9.43;6.87;;;1.70;99.90;;;;;;4989451;28;20577;-48
2021/01/16 12:34:52;;;;;;;8.73;6.13;;;1.70;99.90;;;;;;4988932;28;20837;-48
2021/01/16 12:37:32;;;;;;;10.03;7.10;;;1.70;99.90;;;;;;5006425;28;20479;-48
2021/01/16 12:40:00;;;;;;;8.77;6.43;;;1.80;99.90;;;;;;5011884;28;21060;-48
2021/01/16 12:42:31;;;;;;;9.57;7.57;;;1.90;99.90;;;;;;5028125;28;20495;-48
2021/01/16 12:45:08;;;;;;;10.87;8.27;;;1.90;99.90;;;;;;5028617;28;20578;-48
2021/01/16 12:47:37;;;;;;;11.93;7.93;;;1.80;99.90;;;;;;5028193;28;20481;-48
2021/01/16 12:50:06;;;;;;;10.87;7.97;;;1.80;99.90;;;;;;5020033;28;20502;-48
2021/01/16 12:52:34;;;;;;;10.00;7.87;;;1.90;99.90;;;;;;4988335;28;20565;-48
2021/01/16 12:55:06;;;;;;;10.10;8.10;;;2.00;99.90;;;;;;4988864;28;20529;-49
2021/01/16 12:57:37;;;;;;;10.23;8.30;;;1.90;99.90;;;;;;5008391;28;20564;-48
2021/01/16 13:00:08;;;;;;;10.13;7.70;;;1.90;99.90;;;;;;5006356;28;20623;-48
2021/01/16 13:02:36;;;;;;;9.73;7.73;;;1.90;99.90;;;;;;5006354;28;20476;-50
2021/01/16 13:05:07;;;;;;;9.67;7.43;;;2.00;99.90;;;;;;5006413;28;20575;-51
2021/01/16 13:07:35;;;;;;;9.97;7.43;;;2.00;99.90;;;;;;5006272;28;20561;-48
2021/01/16 13:10:05;;;;;;;11.00;7.97;;;1.90;99.90;;;;;;5007380;28;20480;-49
2021/01/16 13:12:35;;;;;;;10.87;8.23;;;1.90;99.90;;;;;;5008978;28;20507;-48